Altamont, Kansas
Current Conditions -  °F | °C
As of 11:52 PM on Thursday 30 Oct 2014 (Local Time) from KPPF Reporting Station
Clear Clear  
Wind Chill: 51°   Ceiling: Unl
Heat Index: 51°   Visibility: 10mi
Dew Point: 42°   Wind: 8mph
Humidity: 71%   Direction: 350°N
Pressure: 30.22"   Gusts: NA
Location:  37.19°N, 95.3°W
Report Text: KPPF 310452Z AUTO 35007KT 10SM CLR 11/06 A3022 RMK AO2 SLP230 T01060056
Loading
Personal Weather Stations






























Interactive Weather Map
Tropical Storm Tracking
New forecast layout! Learn more

10-Day Weather Forecast

Advertisements
Track Severe Weather on mobile